createdAt,value
2022-11-10T00:00:24.934Z,67.03
2022-11-10T00:03:36.388Z,66.97
2022-11-10T00:06:50.045Z,64.77
2022-11-10T00:10:01.481Z,66.00
2022-11-10T00:13:12.969Z,69.77
2022-11-10T00:16:40.713Z,74.90
2022-11-10T00:19:52.599Z,72.80
2022-11-10T00:23:03.687Z,75.43
2022-11-10T00:26:20.458Z,70.43
2022-11-10T00:29:31.753Z,77.43
2022-11-10T00:32:43.503Z,70.80
2022-11-10T00:35:54.677Z,75.20
2022-11-10T00:39:07.253Z,73.33
2022-11-10T00:45:28.740Z,78.77
2022-11-10T00:48:39.895Z,70.90
2022-11-10T00:51:51.305Z,74.23
2022-11-10T00:55:02.233Z,73.33
2022-11-10T00:58:13.694Z,75.57
2022-11-10T01:01:26.354Z,72.17
2022-11-10T01:04:38.681Z,78.33
2022-11-10T01:07:49.761Z,83.10
2022-11-10T01:11:07.468Z,70.27
2022-11-10T01:14:19.081Z,73.57
2022-11-10T01:17:30.773Z,84.00
2022-11-10T01:20:41.450Z,74.37
2022-11-10T01:23:52.969Z,74.60
2022-11-10T01:27:04.265Z,74.97
2022-11-10T01:30:15.368Z,75.57
2022-11-10T01:33:26.357Z,79.60
2022-11-10T01:36:37.849Z,84.77
2022-11-10T01:39:49.748Z,78.43
2022-11-10T01:43:01.326Z,78.83
2022-11-10T01:46:15.926Z,81.53
2022-11-10T01:49:32.631Z,82.63
2022-11-10T01:52:48.108Z,83.67
2022-11-10T01:56:00.446Z,69.73
2022-11-10T01:59:16.284Z,68.77
2022-11-10T02:02:36.782Z,73.53
2022-11-10T02:05:47.642Z,72.17
2022-11-10T02:08:59.874Z,75.90
2022-11-10T02:12:12.590Z,70.97
2022-11-10T02:15:23.782Z,69.30
2022-11-10T02:18:35.446Z,74.63
2022-11-10T02:21:46.577Z,76.63
2022-11-10T02:24:57.820Z,78.23
2022-11-10T02:28:10.345Z,73.93
2022-11-10T02:31:22.581Z,73.57
2022-11-10T02:34:33.351Z,73.67
2022-11-10T02:37:43.959Z,70.57
2022-11-10T02:40:56.083Z,79.70
2022-11-10T02:44:09.855Z,76.82
2022-11-10T02:47:21.493Z,73.97
2022-11-10T02:50:32.524Z,68.93
2022-11-10T02:53:43.853Z,73.03
2022-11-10T02:56:54.766Z,71.13
2022-11-10T03:00:05.717Z,76.87
2022-11-10T03:03:16.689Z,75.27
2022-11-10T03:06:28.127Z,76.63
2022-11-10T03:09:39.081Z,78.17
2022-11-10T03:12:54.588Z,70.90
2022-11-10T03:16:06.519Z,64.63
2022-11-10T03:22:29.285Z,55.10
2022-11-10T03:25:40.793Z,53.87
2022-11-10T03:28:52.235Z,56.70
2022-11-10T03:32:03.338Z,64.27
2022-11-10T03:35:13.983Z,58.93
2022-11-10T03:38:24.911Z,61.80
2022-11-10T03:41:36.425Z,62.67
2022-11-10T03:44:47.834Z,59.63
2022-11-10T03:47:59.340Z,58.63
2022-11-10T03:51:10.416Z,59.43
2022-11-10T03:54:21.494Z,58.90
2022-11-10T03:57:32.443Z,55.60
2022-11-10T04:00:43.851Z,54.60
2022-11-10T04:03:54.615Z,54.13
2022-11-10T04:07:22.596Z,58.90
2022-11-10T04:10:33.599Z,54.93
2022-11-10T04:14:02.569Z,55.37
2022-11-10T04:17:13.647Z,57.60
2022-11-10T04:20:24.356Z,56.53
2022-11-10T04:23:36.468Z,58.07
2022-11-10T04:26:48.809Z,56.23
2022-11-10T04:29:59.815Z,54.73
2022-11-10T04:33:11.350Z,52.73
2022-11-10T04:36:24.150Z,51.07
2022-11-10T04:39:34.868Z,50.55
2022-11-10T04:42:59.878Z,51.90
2022-11-10T04:46:14.069Z,53.47
2022-11-10T04:57:07.746Z,47.60
2022-11-10T05:07:10.702Z,54.20
2022-11-10T05:10:21.596Z,59.00
2022-11-10T05:13:33.450Z,54.80
2022-11-10T05:16:44.318Z,54.20
2022-11-10T05:19:55.608Z,55.70
2022-11-10T05:26:34.550Z,56.10
2022-11-10T05:29:46.447Z,54.67
2022-11-10T05:32:57.918Z,61.93
2022-11-10T05:36:11.967Z,60.30
2022-11-10T05:39:22.958Z,78.23
2022-11-10T05:42:33.796Z,67.67
2022-11-10T05:45:45.152Z,66.60
2022-11-10T05:48:55.544Z,61.20
2022-11-10T05:52:07.444Z,60.23
2022-11-10T05:55:20.870Z,60.13
2022-11-10T06:01:41.379Z,65.97
2022-11-10T06:04:52.601Z,63.17
2022-11-10T06:08:04.899Z,66.70
2022-11-10T06:11:16.394Z,62.13
2022-11-10T06:14:28.903Z,64.75
2022-11-10T06:17:42.380Z,66.83
2022-11-10T06:24:02.544Z,75.17
2022-11-10T06:27:13.296Z,70.47
2022-11-10T06:30:24.397Z,66.97
2022-11-10T06:33:36.174Z,64.50
2022-11-10T06:36:47.085Z,65.33
2022-11-10T06:39:59.461Z,61.25
2022-11-10T06:43:10.445Z,67.23
2022-11-10T06:46:21.932Z,77.03
2022-11-10T06:49:33.170Z,72.25
2022-11-10T06:52:44.291Z,74.37
2022-11-10T06:55:55.557Z,70.27
2022-11-10T06:59:06.410Z,69.70
2022-11-10T07:02:18.733Z,65.37
2022-11-10T07:05:31.465Z,68.33
2022-11-10T07:08:42.930Z,121.43
2022-11-10T07:11:53.828Z,174.27
2022-11-10T07:15:05.837Z,131.73
2022-11-10T07:18:17.006Z,77.40
2022-11-10T07:21:28.084Z,63.30
2022-11-10T07:24:39.164Z,61.00
2022-11-10T07:27:56.685Z,60.37
2022-11-10T07:31:07.752Z,63.57
2022-11-10T07:34:19.013Z,69.47
2022-11-10T07:37:30.437Z,69.10
2022-11-10T07:40:42.336Z,74.33
2022-11-10T07:43:53.450Z,76.20
2022-11-10T07:47:04.505Z,73.07
2022-11-10T07:50:15.112Z,63.67
2022-11-10T07:53:26.416Z,65.53
2022-11-10T07:56:37.581Z,63.07
2022-11-10T07:59:48.479Z,67.60
2022-11-10T08:03:05.088Z,63.17
2022-11-10T08:06:15.747Z,62.90
2022-11-10T08:09:27.396Z,53.30
2022-11-10T08:12:38.899Z,55.80
2022-11-10T08:15:49.788Z,59.23
2022-11-10T08:19:00.399Z,58.10
2022-11-10T08:22:12.133Z,59.57
2022-11-10T08:25:23.609Z,55.20
2022-11-10T08:28:34.408Z,57.63
2022-11-10T08:31:45.704Z,56.83
2022-11-10T08:34:56.801Z,56.70
2022-11-10T08:38:13.288Z,56.60
2022-11-10T08:41:25.508Z,55.43
2022-11-10T08:44:37.203Z,55.67
2022-11-10T08:47:48.616Z,51.40
2022-11-10T08:51:03.080Z,48.40
2022-11-10T08:54:14.967Z,48.17
2022-11-10T08:57:25.583Z,49.10
2022-11-10T09:00:36.396Z,47.27
2022-11-10T09:03:47.207Z,47.40
2022-11-10T09:06:58.471Z,48.17
2022-11-10T09:10:13.414Z,43.13
2022-11-10T09:13:29.862Z,50.63
2022-11-10T09:16:44.828Z,48.77
2022-11-10T09:19:55.663Z,46.13
2022-11-10T09:23:10.089Z,47.10
2022-11-10T09:26:20.768Z,48.10
2022-11-10T09:29:32.408Z,48.97
2022-11-10T09:32:46.999Z,44.53
2022-11-10T09:36:02.255Z,43.30
2022-11-10T09:39:13.173Z,50.67
2022-11-10T09:42:35.736Z,44.23
2022-11-10T09:45:51.040Z,43.27
2022-11-10T09:49:06.681Z,45.70
2022-11-10T09:52:18.376Z,48.50
2022-11-10T09:55:38.054Z,42.08
2022-11-10T09:58:50.023Z,52.13
2022-11-10T10:02:05.205Z,52.17
2022-11-10T10:05:46.757Z,42.40
2022-11-10T10:09:07.727Z,40.00
2022-11-10T10:12:32.018Z,37.67
2022-11-10T10:15:53.540Z,36.43
2022-11-10T10:19:16.557Z,31.57
2022-11-10T10:22:49.601Z,37.80
2022-11-10T10:26:02.696Z,32.73
2022-11-10T10:29:20.477Z,33.27
2022-11-10T10:32:32.644Z,35.30
2022-11-10T10:35:44.749Z,33.28
2022-11-10T10:38:59.257Z,38.57
2022-11-10T10:42:26.881Z,37.27
2022-11-10T10:45:42.460Z,34.20
2022-11-10T10:49:28.189Z,32.83
2022-11-10T10:52:40.513Z,31.07
2022-11-10T10:56:00.430Z,31.60
2022-11-10T10:59:22.587Z,29.40
2022-11-10T11:02:36.056Z,30.77
2022-11-10T11:06:03.368Z,34.80
2022-11-10T11:09:21.241Z,31.80
2022-11-10T11:12:35.129Z,29.63
2022-11-10T11:15:58.017Z,29.77
2022-11-10T11:19:11.614Z,35.83
2022-11-10T11:22:44.141Z,27.70
2022-11-10T11:26:02.067Z,33.27
2022-11-10T11:29:29.844Z,31.30
2022-11-10T11:33:14.100Z,28.60
2022-11-10T11:36:36.440Z,29.97
2022-11-10T11:39:58.782Z,34.38
2022-11-10T11:46:38.960Z,33.03
2022-11-10T11:50:06.422Z,30.03
2022-11-10T11:53:32.160Z,30.53
2022-11-10T11:56:46.538Z,33.23
2022-11-10T12:00:10.800Z,36.23
2022-11-10T12:03:48.903Z,30.13
2022-11-10T12:07:13.661Z,33.37
2022-11-10T12:10:41.902Z,32.27
2022-11-10T12:14:03.909Z,33.30
2022-11-10T12:17:29.127Z,32.27
2022-11-10T12:20:50.360Z,30.73
2022-11-10T12:24:22.208Z,28.53
2022-11-10T12:27:39.015Z,33.60
2022-11-10T12:30:56.463Z,37.53
2022-11-10T12:37:33.960Z,31.77
2022-11-10T12:40:49.025Z,32.17
2022-11-10T12:44:18.654Z,34.50
2022-11-10T12:47:35.542Z,31.47
2022-11-10T12:50:55.136Z,28.33
2022-11-10T12:54:13.804Z,37.07
2022-11-10T12:57:31.364Z,35.55
2022-11-10T13:00:45.647Z,36.90
2022-11-10T13:03:59.629Z,44.53
2022-11-10T13:07:13.607Z,34.77
2022-11-10T13:10:30.626Z,30.90
2022-11-10T13:13:48.593Z,28.23
2022-11-10T13:17:00.476Z,28.77
2022-11-10T13:20:51.738Z,27.93
2022-11-10T13:24:25.382Z,28.90
2022-11-10T13:27:55.445Z,28.13
2022-11-10T13:31:43.518Z,31.40
2022-11-10T13:34:55.430Z,31.47
2022-11-10T13:38:06.341Z,34.10
2022-11-10T13:41:28.250Z,32.60
2022-11-10T13:44:40.385Z,39.83
2022-11-10T13:47:57.276Z,35.27
2022-11-10T13:51:17.666Z,33.87
2022-11-10T13:54:46.943Z,30.27
2022-11-10T13:58:03.189Z,32.60
2022-11-10T14:01:30.737Z,37.23
2022-11-10T14:04:45.289Z,34.50
2022-11-10T14:08:05.456Z,28.63
2022-11-10T14:11:22.588Z,34.43
2022-11-10T14:14:50.350Z,37.97
2022-11-10T14:18:01.994Z,27.20
2022-11-10T14:21:22.768Z,28.17
2022-11-10T14:24:39.454Z,35.00
2022-11-10T14:27:56.722Z,30.20
2022-11-10T14:31:21.377Z,31.03
2022-11-10T14:34:36.914Z,32.27
2022-11-10T14:37:48.244Z,29.80
2022-11-10T14:41:02.511Z,30.43
2022-11-10T14:44:23.021Z,31.03
2022-11-10T14:47:36.019Z,32.73
2022-11-10T14:50:47.152Z,28.20
2022-11-10T14:53:59.561Z,34.80
2022-11-10T14:57:16.138Z,36.35
2022-11-10T15:00:28.661Z,38.23
2022-11-10T15:03:41.308Z,38.53
2022-11-10T15:06:54.474Z,40.67
2022-11-10T15:10:19.807Z,43.33
2022-11-10T15:13:41.156Z,36.07
2022-11-10T15:17:05.321Z,35.37
2022-11-10T15:23:23.874Z,40.30
2022-11-10T15:26:40.355Z,35.48
2022-11-10T15:29:52.087Z,35.90
2022-11-10T15:33:09.561Z,36.98
2022-11-10T15:36:32.808Z,40.87
2022-11-10T15:39:44.322Z,57.67
2022-11-10T15:43:14.847Z,33.60
2022-11-10T15:46:28.254Z,43.73
2022-11-10T15:49:40.704Z,43.17
2022-11-10T15:52:51.785Z,43.58
2022-11-10T15:56:03.337Z,38.28
2022-11-10T15:59:15.469Z,57.30
2022-11-10T16:02:27.785Z,43.05
2022-11-10T16:08:50.920Z,37.45
2022-11-10T16:12:01.536Z,39.67
2022-11-10T16:15:20.455Z,36.83
2022-11-10T16:18:33.106Z,49.27
2022-11-10T16:21:44.865Z,51.97
2022-11-10T16:24:56.080Z,37.93
2022-11-10T16:28:07.971Z,49.43
2022-11-10T16:31:22.143Z,38.17
2022-11-10T16:34:33.000Z,47.90
2022-11-10T16:37:45.439Z,53.93
2022-11-10T16:40:59.397Z,46.92
2022-11-10T16:44:14.329Z,46.43
2022-11-10T16:47:25.770Z,48.13
2022-11-10T16:50:38.314Z,51.00
2022-11-10T16:53:49.708Z,50.40
2022-11-10T16:57:01.224Z,45.10
2022-11-10T17:00:15.598Z,47.83
2022-11-10T17:03:32.737Z,50.20
2022-11-10T17:06:44.180Z,69.90
2022-11-10T17:09:55.338Z,50.13
2022-11-10T17:13:06.924Z,60.47
2022-11-10T17:16:22.467Z,59.00
2022-11-10T17:19:33.360Z,64.83
2022-11-10T17:22:44.242Z,59.10
2022-11-10T17:25:56.431Z,103.37
2022-11-10T17:29:07.535Z,105.22
2022-11-10T17:32:24.211Z,114.83
2022-11-10T17:35:47.464Z,104.53
2022-11-10T17:39:02.371Z,94.33
2022-11-10T17:42:16.308Z,91.67
2022-11-10T17:45:30.164Z,88.17
2022-11-10T17:48:41.663Z,95.87
2022-11-10T17:51:52.755Z,96.50
2022-11-10T17:55:04.282Z,87.53
2022-11-10T17:58:15.480Z,97.73
2022-11-10T18:01:26.484Z,113.57
2022-11-10T18:04:38.149Z,114.10
2022-11-10T18:07:53.153Z,120.17
2022-11-10T18:11:04.508Z,126.90
2022-11-10T18:14:16.091Z,121.93
2022-11-10T18:17:27.679Z,124.70
2022-11-10T18:20:39.598Z,129.83
2022-11-10T18:23:50.675Z,138.97
2022-11-10T18:27:01.755Z,128.90
2022-11-10T18:30:22.252Z,122.33
2022-11-10T18:33:33.495Z,121.37
2022-11-10T18:36:45.023Z,94.53
2022-11-10T18:39:56.143Z,112.50
2022-11-10T18:43:07.932Z,109.73
2022-11-10T18:46:19.691Z,117.73
2022-11-10T18:49:31.681Z,106.03
2022-11-10T18:52:43.688Z,100.80
2022-11-10T18:55:59.313Z,105.20
2022-11-10T18:59:10.833Z,96.65
2022-11-10T19:02:22.372Z,99.53
2022-11-10T19:05:33.728Z,109.27
2022-11-10T19:08:45.576Z,104.87
2022-11-10T19:11:56.299Z,107.63
2022-11-10T19:15:09.443Z,99.13
2022-11-10T19:18:20.535Z,103.43
2022-11-10T19:21:31.692Z,98.33
2022-11-10T19:25:06.366Z,110.53
2022-11-10T19:28:14.906Z,103.13
2022-11-10T19:31:27.448Z,98.30
2022-11-10T19:34:38.894Z,111.72
2022-11-10T19:37:52.596Z,110.33
2022-11-10T19:41:08.391Z,108.97
2022-11-10T19:44:19.391Z,107.37
2022-11-10T19:47:31.330Z,110.80
2022-11-10T19:50:48.194Z,110.30
2022-11-10T19:54:02.788Z,108.53
2022-11-10T19:57:14.179Z,107.40
2022-11-10T20:00:28.172Z,106.17
2022-11-10T20:03:39.646Z,107.67
2022-11-10T20:07:10.617Z,106.50
2022-11-10T20:10:21.904Z,106.17
2022-11-10T20:13:33.539Z,103.63
2022-11-10T20:16:44.821Z,108.93
2022-11-10T20:19:55.900Z,100.60
2022-11-10T20:23:08.661Z,110.00
2022-11-10T20:26:21.307Z,98.95
2022-11-10T20:29:45.576Z,100.30
2022-11-10T20:32:57.161Z,105.30
2022-11-10T20:36:15.973Z,96.90
2022-11-10T20:39:30.016Z,106.83
2022-11-10T20:42:42.917Z,101.17
2022-11-10T20:45:57.255Z,101.20
2022-11-10T20:49:09.656Z,98.87
2022-11-10T20:52:20.673Z,97.50
2022-11-10T20:55:52.642Z,93.60
2022-11-10T20:59:03.825Z,96.10
2022-11-10T21:02:16.035Z,97.87
2022-11-10T21:05:27.332Z,98.58
2022-11-10T21:08:39.110Z,108.27
2022-11-10T21:18:41.433Z,109.67
2022-11-10T21:21:58.919Z,116.43
2022-11-10T21:25:11.464Z,140.33
2022-11-10T21:31:32.888Z,146.43
2022-11-10T21:34:43.865Z,140.43
2022-11-10T21:37:55.863Z,144.63
2022-11-10T21:41:07.409Z,139.77
2022-11-10T21:44:18.519Z,144.57
2022-11-10T21:47:30.229Z,139.37
2022-11-10T21:50:41.813Z,129.13
2022-11-10T21:53:53.628Z,123.00
2022-11-10T21:57:04.520Z,109.47
2022-11-10T22:00:19.560Z,105.93
2022-11-10T22:03:32.713Z,99.57
2022-11-10T22:07:01.121Z,105.65
2022-11-10T22:10:31.599Z,100.87
2022-11-10T22:13:59.881Z,99.60
2022-11-10T22:17:35.125Z,109.47
2022-11-10T22:20:46.238Z,105.00
2022-11-10T22:24:14.487Z,103.30
2022-11-10T22:27:25.765Z,104.53
2022-11-10T22:30:37.528Z,109.43
2022-11-10T22:33:48.593Z,107.80
2022-11-10T22:37:00.023Z,103.73
2022-11-10T22:40:36.905Z,101.93
2022-11-10T22:44:06.657Z,113.73
2022-11-10T22:47:17.642Z,106.17
2022-11-10T22:50:28.429Z,106.00
2022-11-10T22:53:41.518Z,102.83
2022-11-10T22:56:53.276Z,104.43
2022-11-10T23:00:04.672Z,95.47
2022-11-10T23:03:16.003Z,105.30
2022-11-10T23:06:27.970Z,105.33
2022-11-10T23:09:39.337Z,100.25
2022-11-10T23:12:50.196Z,100.17
2022-11-10T23:16:06.926Z,106.17
2022-11-10T23:19:18.281Z,115.03
2022-11-10T23:22:29.595Z,112.53
2022-11-10T23:25:40.119Z,101.23
2022-11-10T23:28:53.003Z,107.57
2022-11-10T23:32:04.297Z,99.40
2022-11-10T23:35:16.153Z,100.00
2022-11-10T23:38:27.842Z,97.40
2022-11-10T23:41:39.147Z,88.43
2022-11-10T23:44:50.213Z,93.43
2022-11-10T23:48:06.575Z,92.70
2022-11-10T23:51:18.360Z,90.87
2022-11-10T23:54:29.461Z,92.07
2022-11-10T23:57:40.250Z,97.00
